sensor_id;sensor_type;location;lat;lon;timestamp;pressure;altitude;pressure_sealevel;temperature;humidity
9889;BME280;4983;42.112;24.738;2023-09-30T00:00:07;99924.44;;;20.87;69.46
9889;BME280;4983;42.112;24.738;2023-09-30T00:02:34;99923.56;;;20.80;69.34
9889;BME280;4983;42.112;24.738;2023-09-30T00:05:01;99919.25;;;20.99;69.78
9889;BME280;4983;42.112;24.738;2023-09-30T00:07:29;99924.13;;;20.69;69.77
9889;BME280;4983;42.112;24.738;2023-09-30T00:09:56;99935.47;;;20.53;71.19
9889;BME280;4983;42.112;24.738;2023-09-30T00:12:24;99944.63;;;20.39;71.98
9889;BME280;4983;42.112;24.738;2023-09-30T00:14:51;99939.09;;;20.33;72.16
9889;BME280;4983;42.112;24.738;2023-09-30T00:17:19;99936.91;;;20.49;72.34
9889;BME280;4983;42.112;24.738;2023-09-30T00:19:46;99930.06;;;20.73;71.28
9889;BME280;4983;42.112;24.738;2023-09-30T00:22:13;99927.16;;;20.47;71.78
9889;BME280;4983;42.112;24.738;2023-09-30T00:24:40;99923.78;;;20.51;71.26
9889;BME280;4983;42.112;24.738;2023-09-30T00:27:08;99911.34;;;20.55;71.07
9889;BME280;4983;42.112;24.738;2023-09-30T00:29:36;99917.66;;;20.56;71.19
9889;BME280;4983;42.112;24.738;2023-09-30T00:32:03;99911.09;;;20.50;71.15
9889;BME280;4983;42.112;24.738;2023-09-30T00:34:32;99906.09;;;20.60;71.24
9889;BME280;4983;42.112;24.738;2023-09-30T00:36:59;99911.34;;;20.55;71.21
9889;BME280;4983;42.112;24.738;2023-09-30T00:39:27;99910.44;;;20.48;71.59
9889;BME280;4983;42.112;24.738;2023-09-30T00:41:56;99908.34;;;20.50;70.84
9889;BME280;4983;42.112;24.738;2023-09-30T00:44:24;99901.59;;;20.53;70.94
9889;BME280;4983;42.112;24.738;2023-09-30T00:46:54;99912.66;;;20.66;71.92
9889;BME280;4983;42.112;24.738;2023-09-30T00:49:22;99908.97;;;20.46;71.70
9889;BME280;4983;42.112;24.738;2023-09-30T00:51:50;99914.25;;;20.47;72.09
9889;BME280;4983;42.112;24.738;2023-09-30T00:54:18;99906.66;;;20.49;72.28
9889;BME280;4983;42.112;24.738;2023-09-30T00:56:47;99916.75;;;20.42;72.67
9889;BME280;4983;42.112;24.738;2023-09-30T00:59:15;99907.25;;;20.45;72.53
9889;BME280;4983;42.112;24.738;2023-09-30T01:01:44;99917.66;;;20.49;72.94
9889;BME280;4983;42.112;24.738;2023-09-30T01:04:14;99908.09;;;20.45;72.43
9889;BME280;4983;42.112;24.738;2023-09-30T01:06:41;99913.31;;;20.34;72.61
9889;BME280;4983;42.112;24.738;2023-09-30T01:09:08;99918.03;;;20.46;72.75
9889;BME280;4983;42.112;24.738;2023-09-30T01:11:35;99916.66;;;20.63;72.51
9889;BME280;4983;42.112;24.738;2023-09-30T01:14:02;99912.22;;;20.62;72.31
9889;BME280;4983;42.112;24.738;2023-09-30T01:16:29;99915.16;;;20.61;72.68
9889;BME280;4983;42.112;24.738;2023-09-30T01:18:56;99914.81;;;20.70;72.76
9889;BME280;4983;42.112;24.738;2023-09-30T01:21:24;99918.09;;;20.53;73.60
9889;BME280;4983;42.112;24.738;2023-09-30T01:23:54;99901.91;;;20.71;72.89
9889;BME280;4983;42.112;24.738;2023-09-30T01:26:21;99914.09;;;20.55;73.53
9889;BME280;4983;42.112;24.738;2023-09-30T01:28:48;99913.09;;;20.63;73.14
9889;BME280;4983;42.112;24.738;2023-09-30T01:31:15;99907.66;;;20.42;73.32
9889;BME280;4983;42.112;24.738;2023-09-30T01:33:42;99914.19;;;20.41;73.88
9889;BME280;4983;42.112;24.738;2023-09-30T01:36:09;99917.00;;;20.20;74.59
9889;BME280;4983;42.112;24.738;2023-09-30T01:38:36;99917.03;;;20.05;74.84
9889;BME280;4983;42.112;24.738;2023-09-30T01:41:05;99919.03;;;20.11;75.35
9889;BME280;4983;42.112;24.738;2023-09-30T01:43:32;99921.03;;;20.03;75.37
9889;BME280;4983;42.112;24.738;2023-09-30T01:46:01;99925.59;;;20.10;75.84
9889;BME280;4983;42.112;24.738;2023-09-30T01:48:28;99919.97;;;20.18;75.52
9889;BME280;4983;42.112;24.738;2023-09-30T01:50:54;99923.28;;;20.14;75.46
9889;BME280;4983;42.112;24.738;2023-09-30T01:53:21;99922.72;;;20.18;74.78
9889;BME280;4983;42.112;24.738;2023-09-30T01:55:48;99916.53;;;20.16;74.73
9889;BME280;4983;42.112;24.738;2023-09-30T01:58:16;99917.06;;;20.26;75.14
9889;BME280;4983;42.112;24.738;2023-09-30T02:00:43;99911.72;;;20.18;75.29
9889;BME280;4983;42.112;24.738;2023-09-30T02:03:11;99913.19;;;20.21;75.57
9889;BME280;4983;42.112;24.738;2023-09-30T02:05:38;99909.44;;;20.28;75.36
9889;BME280;4983;42.112;24.738;2023-09-30T02:08:05;99936.38;;;20.12;75.36
9889;BME280;4983;42.112;24.738;2023-09-30T02:10:32;99917.75;;;20.07;76.91
9889;BME280;4983;42.112;24.738;2023-09-30T02:13:00;99918.00;;;20.12;76.37
9889;BME280;4983;42.112;24.738;2023-09-30T02:15:28;99908.31;;;19.95;76.61
9889;BME280;4983;42.112;24.738;2023-09-30T02:17:55;99906.16;;;20.12;75.81
9889;BME280;4983;42.112;24.738;2023-09-30T02:20:21;99910.78;;;19.90;76.08
9889;BME280;4983;42.112;24.738;2023-09-30T02:22:51;99917.47;;;20.02;76.51
9889;BME280;4983;42.112;24.738;2023-09-30T02:25:19;99911.31;;;20.21;75.55
9889;BME280;4983;42.112;24.738;2023-09-30T02:27:47;99901.25;;;20.07;75.44
9889;BME280;4983;42.112;24.738;2023-09-30T02:30:15;99921.00;;;19.96;76.49
9889;BME280;4983;42.112;24.738;2023-09-30T02:32:44;99922.22;;;19.73;77.71
9889;BME280;4983;42.112;24.738;2023-09-30T02:35:12;99928.88;;;19.43;79.81
9889;BME280;4983;42.112;24.738;2023-09-30T02:37:40;99936.38;;;19.34;80.88
9889;BME280;4983;42.112;24.738;2023-09-30T02:40:08;99934.69;;;19.19;81.28
9889;BME280;4983;42.112;24.738;2023-09-30T02:42:36;99931.81;;;19.41;81.19
9889;BME280;4983;42.112;24.738;2023-09-30T02:45:04;99919.66;;;19.15;81.45
9889;BME280;4983;42.112;24.738;2023-09-30T02:47:31;99926.59;;;19.25;82.17
9889;BME280;4983;42.112;24.738;2023-09-30T02:49:59;99925.97;;;18.80;84.81
9889;BME280;4983;42.112;24.738;2023-09-30T02:52:26;99923.75;;;18.75;84.52
9889;BME280;4983;42.112;24.738;2023-09-30T02:54:54;99914.31;;;18.92;83.74
9889;BME280;4983;42.112;24.738;2023-09-30T02:57:23;99908.25;;;18.82;83.18
9889;BME280;4983;42.112;24.738;2023-09-30T02:59:50;99903.59;;;18.97;82.95
9889;BME280;4983;42.112;24.738;2023-09-30T03:02:19;99898.78;;;18.85;82.81
9889;BME280;4983;42.112;24.738;2023-09-30T03:04:46;99901.25;;;18.94;82.04
9889;BME280;4983;42.112;24.738;2023-09-30T03:07:18;99902.50;;;18.92;82.38
9889;BME280;4983;42.112;24.738;2023-09-30T03:09:44;99895.84;;;19.01;81.27
9889;BME280;4983;42.112;24.738;2023-09-30T03:12:11;99885.81;;;18.93;81.15
9889;BME280;4983;42.112;24.738;2023-09-30T03:14:39;99877.72;;;18.85;80.47
9889;BME280;4983;42.112;24.738;2023-09-30T03:17:06;99889.53;;;19.00;81.59
9889;BME280;4983;42.112;24.738;2023-09-30T03:19:37;99881.78;;;18.89;80.74
9889;BME280;4983;42.112;24.738;2023-09-30T03:22:04;99885.72;;;19.01;79.91
9889;BME280;4983;42.112;24.738;2023-09-30T03:24:37;99887.63;;;18.86;80.18
9889;BME280;4983;42.112;24.738;2023-09-30T03:27:04;99886.09;;;18.98;80.37
9889;BME280;4983;42.112;24.738;2023-09-30T03:29:31;99893.50;;;18.98;80.19
9889;BME280;4983;42.112;24.738;2023-09-30T03:31:58;99896.44;;;18.82;80.46
9889;BME280;4983;42.112;24.738;2023-09-30T03:34:25;99893.88;;;18.80;80.28
9889;BME280;4983;42.112;24.738;2023-09-30T03:36:52;99884.34;;;18.62;80.57
9889;BME280;4983;42.112;24.738;2023-09-30T03:39:24;99901.84;;;18.46;81.68
9889;BME280;4983;42.112;24.738;2023-09-30T03:41:55;99938.06;;;18.56;81.54
9889;BME280;4983;42.112;24.738;2023-09-30T03:44:23;99897.88;;;18.63;81.05
9889;BME280;4983;42.112;24.738;2023-09-30T03:46:50;99884.09;;;18.57;81.02
9889;BME280;4983;42.112;24.738;2023-09-30T03:49:19;99893.53;;;18.54;80.96
9889;BME280;4983;42.112;24.738;2023-09-30T03:51:46;99893.88;;;18.80;80.68
9889;BME280;4983;42.112;24.738;2023-09-30T03:54:16;99895.59;;;18.81;81.17
9889;BME280;4983;42.112;24.738;2023-09-30T03:56:43;99899.09;;;18.61;81.28
9889;BME280;4983;42.112;24.738;2023-09-30T03:59:12;99888.88;;;18.55;79.77
9889;BME280;4983;42.112;24.738;2023-09-30T04:01:39;99888.41;;;18.51;80.00
9889;BME280;4983;42.112;24.738;2023-09-30T04:04:08;99895.19;;;18.26;81.20
9889;BME280;4983;42.112;24.738;2023-09-30T04:06:36;99899.63;;;18.27;81.34
9889;BME280;4983;42.112;24.738;2023-09-30T04:09:04;99892.03;;;18.37;80.60
9889;BME280;4983;42.112;24.738;2023-09-30T04:11:35;99892.09;;;18.44;80.22
9889;BME280;4983;42.112;24.738;2023-09-30T04:14:03;99892.44;;;18.26;80.66
9889;BME280;4983;42.112;24.738;2023-09-30T04:16:32;99893.72;;;18.38;80.16
9889;BME280;4983;42.112;24.738;2023-09-30T04:18:59;99890.59;;;18.56;80.38
9889;BME280;4983;42.112;24.738;2023-09-30T04:21:27;99892.09;;;18.44;80.19
9889;BME280;4983;42.112;24.738;2023-09-30T04:23:55;99897.50;;;18.37;80.74
9889;BME280;4983;42.112;24.738;2023-09-30T04:26:24;99893.75;;;18.16;81.31
9889;BME280;4983;42.112;24.738;2023-09-30T04:28:51;99908.88;;;18.26;80.89
9889;BME280;4983;42.112;24.738;2023-09-30T04:31:19;99908.28;;;18.39;81.04
9889;BME280;4983;42.112;24.738;2023-09-30T04:33:48;99908.94;;;18.41;80.92
9889;BME280;4983;42.112;24.738;2023-09-30T04:36:16;99926.66;;;18.30;81.32
9889;BME280;4983;42.112;24.738;2023-09-30T04:38:43;99915.25;;;18.41;81.59
9889;BME280;4983;42.112;24.738;2023-09-30T04:41:10;99924.59;;;18.32;81.45
9889;BME280;4983;42.112;24.738;2023-09-30T04:43:37;99918.81;;;18.27;81.56
9889;BME280;4983;42.112;24.738;2023-09-30T04:46:05;99920.03;;;18.25;81.38
9889;BME280;4983;42.112;24.738;2023-09-30T04:48:32;99921.69;;;18.11;82.47
9889;BME280;4983;42.112;24.738;2023-09-30T04:51:01;99936.63;;;18.31;82.13
9889;BME280;4983;42.112;24.738;2023-09-30T04:53:30;99924.91;;;18.37;81.61
9889;BME280;4983;42.112;24.738;2023-09-30T04:55:59;99922.94;;;18.23;81.54
9889;BME280;4983;42.112;24.738;2023-09-30T04:58:27;99933.06;;;18.23;81.52
9889;BME280;4983;42.112;24.738;2023-09-30T05:00:55;99931.13;;;18.31;81.65
9889;BME280;4983;42.112;24.738;2023-09-30T05:03:21;99927.94;;;18.42;81.42
9889;BME280;4983;42.112;24.738;2023-09-30T05:05:49;99928.00;;;18.34;81.59
9889;BME280;4983;42.112;24.738;2023-09-30T05:08:20;99929.53;;;18.51;81.47
9889;BME280;4983;42.112;24.738;2023-09-30T05:10:47;99922.63;;;18.41;80.94
9889;BME280;4983;42.112;24.738;2023-09-30T05:13:13;99916.22;;;18.48;80.72
9889;BME280;4983;42.112;24.738;2023-09-30T05:15:40;99921.41;;;18.43;81.14
9889;BME280;4983;42.112;24.738;2023-09-30T05:18:08;99923.28;;;18.43;80.29
9889;BME280;4983;42.112;24.738;2023-09-30T05:20:35;99922.19;;;18.66;80.51
9889;BME280;4983;42.112;24.738;2023-09-30T05:23:04;99930.59;;;18.65;80.38
9889;BME280;4983;42.112;24.738;2023-09-30T05:25:34;99925.00;;;18.73;80.74
9889;BME280;4983;42.112;24.738;2023-09-30T05:28:03;99928.97;;;18.70;80.65
9889;BME280;4983;42.112;24.738;2023-09-30T05:30:31;99936.34;;;18.70;80.16
9889;BME280;4983;42.112;24.738;2023-09-30T05:33:01;99925.66;;;18.89;79.29
9889;BME280;4983;42.112;24.738;2023-09-30T05:35:28;99922.25;;;18.87;79.05
9889;BME280;4983;42.112;24.738;2023-09-30T05:37:57;99923.94;;;19.03;78.93
9889;BME280;4983;42.112;24.738;2023-09-30T05:40:24;99933.91;;;18.89;79.57
9889;BME280;4983;42.112;24.738;2023-09-30T05:42:54;99930.06;;;19.19;78.72
9889;BME280;4983;42.112;24.738;2023-09-30T05:45:23;99926.75;;;19.24;78.19
9889;BME280;4983;42.112;24.738;2023-09-30T05:47:52;99931.16;;;19.39;78.29
9889;BME280;4983;42.112;24.738;2023-09-30T05:50:19;99926.41;;;19.48;77.44
9889;BME280;4983;42.112;24.738;2023-09-30T05:52:50;99940.00;;;19.35;78.61
9889;BME280;4983;42.112;24.738;2023-09-30T05:55:17;99929.56;;;19.45;78.05
9889;BME280;4983;42.112;24.738;2023-09-30T05:57:46;99923.81;;;19.61;76.52
9889;BME280;4983;42.112;24.738;2023-09-30T06:00:15;99924.41;;;19.56;76.90
9889;BME280;4983;42.112;24.738;2023-09-30T06:02:46;99933.81;;;19.68;76.51
9889;BME280;4983;42.112;24.738;2023-09-30T06:05:14;99935.50;;;19.69;76.18
9889;BME280;4983;42.112;24.738;2023-09-30T06:07:44;99927.66;;;19.87;76.07
9889;BME280;4983;42.112;24.738;2023-09-30T06:10:12;99933.22;;;19.94;75.79
9889;BME280;4983;42.112;24.738;2023-09-30T06:12:44;99930.94;;;19.97;75.78
9889;BME280;4983;42.112;24.738;2023-09-30T06:15:12;99936.28;;;20.05;74.44
9889;BME280;4983;42.112;24.738;2023-09-30T06:17:41;99928.22;;;20.18;74.91
9889;BME280;4983;42.112;24.738;2023-09-30T06:20:10;99934.69;;;20.38;75.46
9889;BME280;4983;42.112;24.738;2023-09-30T06:22:42;99933.97;;;20.57;74.58
9889;BME280;4983;42.112;24.738;2023-09-30T06:25:11;99939.72;;;20.62;75.66
9889;BME280;4983;42.112;24.738;2023-09-30T06:27:39;99932.38;;;20.69;73.88
9889;BME280;4983;42.112;24.738;2023-09-30T06:30:07;99920.84;;;20.87;73.43
9889;BME280;4983;42.112;24.738;2023-09-30T06:32:34;99914.56;;;20.99;72.88
9889;BME280;4983;42.112;24.738;2023-09-30T06:35:04;99916.34;;;21.19;72.63
9889;BME280;4983;42.112;24.738;2023-09-30T06:37:31;99912.63;;;21.33;70.98
9889;BME280;4983;42.112;24.738;2023-09-30T06:39:58;99903.56;;;21.52;70.38
9889;BME280;4983;42.112;24.738;2023-09-30T06:42:29;99899.19;;;21.84;69.15
9889;BME280;4983;42.112;24.738;2023-09-30T06:44:57;99879.69;;;21.92;66.08
9889;BME280;4983;42.112;24.738;2023-09-30T06:47:25;99869.09;;;22.15;64.38
9889;BME280;4983;42.112;24.738;2023-09-30T06:49:52;99867.16;;;22.22;62.07
9889;BME280;4983;42.112;24.738;2023-09-30T06:52:20;99853.34;;;22.35;61.80
9889;BME280;4983;42.112;24.738;2023-09-30T06:54:47;99848.47;;;22.56;58.72
9889;BME280;4983;42.112;24.738;2023-09-30T06:57:14;99834.84;;;22.68;57.39
9889;BME280;4983;42.112;24.738;2023-09-30T06:59:42;99841.38;;;22.80;56.93
9889;BME280;4983;42.112;24.738;2023-09-30T07:02:09;99845.13;;;22.98;56.64
9889;BME280;4983;42.112;24.738;2023-09-30T07:04:37;99820.00;;;23.13;52.72
9889;BME280;4983;42.112;24.738;2023-09-30T07:07:04;99826.97;;;23.22;53.49
9889;BME280;4983;42.112;24.738;2023-09-30T07:09:32;99829.91;;;23.33;54.06
9889;BME280;4983;42.112;24.738;2023-09-30T07:11:59;99820.47;;;23.41;51.96
9889;BME280;4983;42.112;24.738;2023-09-30T07:14:26;99815.72;;;23.54;50.77
9889;BME280;4983;42.112;24.738;2023-09-30T07:16:53;99806.50;;;23.67;51.30
9889;BME280;4983;42.112;24.738;2023-09-30T07:19:20;99817.25;;;23.75;50.86
9889;BME280;4983;42.112;24.738;2023-09-30T07:21:48;99816.75;;;23.84;49.57
9889;BME280;4983;42.112;24.738;2023-09-30T07:24:16;99811.22;;;23.84;48.81
9889;BME280;4983;42.112;24.738;2023-09-30T07:26:45;99812.94;;;24.10;50.00
9889;BME280;4983;42.112;24.738;2023-09-30T07:29:12;99815.88;;;24.15;47.61
9889;BME280;4983;42.112;24.738;2023-09-30T07:31:39;99807.19;;;24.11;47.66
9889;BME280;4983;42.112;24.738;2023-09-30T07:34:05;99823.44;;;24.26;48.75
9889;BME280;4983;42.112;24.738;2023-09-30T07:36:32;99807.00;;;24.49;47.79
9889;BME280;4983;42.112;24.738;2023-09-30T07:38:59;99805.38;;;24.41;47.11
9889;BME280;4983;42.112;24.738;2023-09-30T07:41:27;99803.91;;;24.63;47.71
9889;BME280;4983;42.112;24.738;2023-09-30T07:43:56;99810.13;;;24.77;46.72
9889;BME280;4983;42.112;24.738;2023-09-30T07:46:24;99798.19;;;24.76;44.54
9889;BME280;4983;42.112;24.738;2023-09-30T07:48:52;99800.81;;;24.71;44.70
9889;BME280;4983;42.112;24.738;2023-09-30T07:51:19;99784.50;;;24.81;44.08
9889;BME280;4983;42.112;24.738;2023-09-30T07:53:46;99804.03;;;24.86;43.95
9889;BME280;4983;42.112;24.738;2023-09-30T07:56:15;99798.22;;;25.06;44.38
9889;BME280;4983;42.112;24.738;2023-09-30T07:58:42;99791.19;;;25.21;44.71
9889;BME280;4983;42.112;24.738;2023-09-30T08:01:10;99789.44;;;25.27;42.92
9889;BME280;4983;42.112;24.738;2023-09-30T08:03:37;99787.53;;;25.27;42.44
9889;BME280;4983;42.112;24.738;2023-09-30T08:06:07;99789.16;;;25.58;43.22
9889;BME280;4983;42.112;24.738;2023-09-30T08:08:34;99793.75;;;25.52;41.94
9889;BME280;4983;42.112;24.738;2023-09-30T08:11:01;99787.16;;;25.65;42.47
9889;BME280;4983;42.112;24.738;2023-09-30T08:13:27;99790.78;;;25.77;42.80
9889;BME280;4983;42.112;24.738;2023-09-30T08:15:55;99792.59;;;25.83;41.73
9889;BME280;4983;42.112;24.738;2023-09-30T08:18:23;99788.84;;;25.77;40.74
9889;BME280;4983;42.112;24.738;2023-09-30T08:20:50;99785.28;;;26.00;41.17
9889;BME280;4983;42.112;24.738;2023-09-30T08:23:17;99783.25;;;26.07;39.78
9889;BME280;4983;42.112;24.738;2023-09-30T08:25:44;99774.69;;;26.20;39.89
9889;BME280;4983;42.112;24.738;2023-09-30T08:28:12;99758.75;;;26.27;37.97
9889;BME280;4983;42.112;24.738;2023-09-30T08:30:39;99750.06;;;26.23;38.43
9889;BME280;4983;42.112;24.738;2023-09-30T08:33:08;99768.75;;;26.28;39.60
9889;BME280;4983;42.112;24.738;2023-09-30T08:35:39;99761.59;;;26.43;39.40
9889;BME280;4983;42.112;24.738;2023-09-30T08:38:06;99761.88;;;26.65;37.88
9889;BME280;4983;42.112;24.738;2023-09-30T08:40:33;99759.38;;;26.80;37.49
9889;BME280;4983;42.112;24.738;2023-09-30T08:43:04;99758.41;;;26.86;37.00
9889;BME280;4983;42.112;24.738;2023-09-30T08:45:33;99760.66;;;27.00;37.72
9889;BME280;4983;42.112;24.738;2023-09-30T08:48:01;99763.88;;;27.09;37.28
9889;BME280;4983;42.112;24.738;2023-09-30T08:50:31;99756.94;;;26.95;35.31
9889;BME280;4983;42.112;24.738;2023-09-30T08:53:00;99761.34;;;27.07;36.53
9889;BME280;4983;42.112;24.738;2023-09-30T08:55:29;99754.19;;;27.11;36.07
9889;BME280;4983;42.112;24.738;2023-09-30T08:57:58;99756.34;;;27.21;36.79
9889;BME280;4983;42.112;24.738;2023-09-30T09:00:25;99759.88;;;27.44;36.47
9889;BME280;4983;42.112;24.738;2023-09-30T09:02:52;99755.34;;;27.55;36.02
9889;BME280;4983;42.112;24.738;2023-09-30T09:05:19;99747.50;;;27.68;35.26
9889;BME280;4983;42.112;24.738;2023-09-30T09:07:46;99751.75;;;27.87;35.52
9889;BME280;4983;42.112;24.738;2023-09-30T09:10:15;99745.22;;;27.65;34.30
9889;BME280;4983;42.112;24.738;2023-09-30T09:12:42;99743.72;;;27.74;33.88
9889;BME280;4983;42.112;24.738;2023-09-30T09:15:21;99737.97;;;28.14;33.61
9889;BME280;4983;42.112;24.738;2023-09-30T09:17:48;99735.88;;;28.04;34.32
9889;BME280;4983;42.112;24.738;2023-09-30T09:20:18;99752.38;;;28.11;34.60
9889;BME280;4983;42.112;24.738;2023-09-30T09:22:47;99734.53;;;28.07;33.20
9889;BME280;4983;42.112;24.738;2023-09-30T09:25:17;99713.13;;;27.91;32.34
9889;BME280;4983;42.112;24.738;2023-09-30T09:27:45;99721.69;;;28.22;33.10
9889;BME280;4983;42.112;24.738;2023-09-30T09:30:16;99714.47;;;28.64;32.39
9889;BME280;4983;42.112;24.738;2023-09-30T09:32:58;99702.06;;;28.50;30.83
9889;BME280;4983;42.112;24.738;2023-09-30T09:35:26;99704.97;;;28.22;31.05
9889;BME280;4983;42.112;24.738;2023-09-30T09:37:55;99705.59;;;28.08;31.40
9889;BME280;4983;42.112;24.738;2023-09-30T09:40:25;99716.16;;;28.65;32.11
9889;BME280;4983;42.112;24.738;2023-09-30T09:42:53;99703.53;;;28.58;32.44
9889;BME280;4983;42.112;24.738;2023-09-30T09:45:22;99709.47;;;28.66;31.54
9889;BME280;4983;42.112;24.738;2023-09-30T09:47:49;99717.50;;;28.84;31.57
9889;BME280;4983;42.112;24.738;2023-09-30T09:50:17;99704.97;;;29.03;31.84
9889;BME280;4983;42.112;24.738;2023-09-30T09:52:47;99691.47;;;29.22;30.19
9889;BME280;4983;42.112;24.738;2023-09-30T09:55:16;99673.22;;;29.36;28.42
9889;BME280;4983;42.112;24.738;2023-09-30T09:57:45;99681.09;;;29.44;30.24
9889;BME280;4983;42.112;24.738;2023-09-30T10:00:14;99671.22;;;29.63;29.43
9889;BME280;4983;42.112;24.738;2023-09-30T10:02:42;99655.06;;;29.65;28.71
9889;BME280;4983;42.112;24.738;2023-09-30T10:05:09;99664.38;;;29.75;29.68
9889;BME280;4983;42.112;24.738;2023-09-30T10:07:40;99656.13;;;29.59;29.00
9889;BME280;4983;42.112;24.738;2023-09-30T10:10:13;99660.19;;;29.78;29.46
9889;BME280;4983;42.112;24.738;2023-09-30T10:12:41;99656.34;;;29.84;28.63
9889;BME280;4983;42.112;24.738;2023-09-30T10:15:40;99641.66;;;29.62;28.15
9889;BME280;4983;42.112;24.738;2023-09-30T10:18:08;99650.91;;;29.36;28.21
9889;BME280;4983;42.112;24.738;2023-09-30T10:20:38;99652.56;;;29.63;29.11
9889;BME280;4983;42.112;24.738;2023-09-30T10:23:23;99639.28;;;29.85;27.70
9889;BME280;4983;42.112;24.738;2023-09-30T10:25:55;99631.88;;;30.01;27.40
9889;BME280;4983;42.112;24.738;2023-09-30T10:28:41;99612.72;;;29.73;26.53
9889;BME280;4983;42.112;24.738;2023-09-30T10:31:13;99623.38;;;30.32;27.30
9889;BME280;4983;42.112;24.738;2023-09-30T10:34:21;99624.66;;;30.66;26.91
9889;BME280;4983;42.112;24.738;2023-09-30T10:36:49;99613.13;;;30.53;26.32
9889;BME280;4983;42.112;24.738;2023-09-30T10:42:46;99609.28;;;30.07;26.78
9889;BME280;4983;42.112;24.738;2023-09-30T10:45:42;99611.59;;;30.15;27.62
9889;BME280;4983;42.112;24.738;2023-09-30T10:48:36;99610.56;;;30.36;26.50
9889;BME280;4983;42.112;24.738;2023-09-30T10:51:14;99597.63;;;30.20;26.81
9889;BME280;4983;42.112;24.738;2023-09-30T10:53:44;99592.78;;;30.06;26.31
9889;BME280;4983;42.112;24.738;2023-09-30T10:56:12;99595.44;;;30.22;26.71
9889;BME280;4983;42.112;24.738;2023-09-30T10:58:41;99587.84;;;30.13;26.44
9889;BME280;4983;42.112;24.738;2023-09-30T11:01:09;99591.53;;;30.23;26.03
9889;BME280;4983;42.112;24.738;2023-09-30T11:03:37;99577.69;;;29.97;26.01
9889;BME280;4983;42.112;24.738;2023-09-30T11:06:05;99593.31;;;29.98;25.87
9889;BME280;4983;42.112;24.738;2023-09-30T11:08:33;99577.53;;;30.18;24.63
9889;BME280;4983;42.112;24.738;2023-09-30T11:11:00;99577.41;;;30.65;25.50
9889;BME280;4983;42.112;24.738;2023-09-30T11:13:32;99580.84;;;30.77;24.42
9889;BME280;4983;42.112;24.738;2023-09-30T11:16:02;99563.22;;;30.81;24.70
9889;BME280;4983;42.112;24.738;2023-09-30T11:18:32;99574.13;;;31.03;25.93
9889;BME280;4983;42.112;24.738;2023-09-30T11:21:08;99569.66;;;31.02;26.00
9889;BME280;4983;42.112;24.738;2023-09-30T11:23:37;99558.72;;;30.70;25.46
9889;BME280;4983;42.112;24.738;2023-09-30T11:26:04;99554.97;;;30.35;24.96
9889;BME280;4983;42.112;24.738;2023-09-30T11:28:39;99557.53;;;30.46;25.93
9889;BME280;4983;42.112;24.738;2023-09-30T11:31:10;99553.06;;;30.55;24.49
9889;BME280;4983;42.112;24.738;2023-09-30T11:33:51;99557.28;;;30.63;25.13
9889;BME280;4983;42.112;24.738;2023-09-30T11:36:20;99562.38;;;30.81;25.60
9889;BME280;4983;42.112;24.738;2023-09-30T11:38:48;99545.59;;;31.16;24.89
9889;BME280;4983;42.112;24.738;2023-09-30T11:41:16;99526.56;;;31.53;23.53
9889;BME280;4983;42.112;24.738;2023-09-30T11:44:01;99541.41;;;31.48;24.83
9889;BME280;4983;42.112;24.738;2023-09-30T11:46:30;99533.56;;;31.55;24.76
9889;BME280;4983;42.112;24.738;2023-09-30T11:49:00;99534.72;;;31.39;24.88
9889;BME280;4983;42.112;24.738;2023-09-30T11:51:29;99533.88;;;31.49;24.27
9889;BME280;4983;42.112;24.738;2023-09-30T11:53:57;99526.88;;;31.31;25.43
9889;BME280;4983;42.112;24.738;2023-09-30T11:56:24;99527.16;;;31.45;24.02
9889;BME280;4983;42.112;24.738;2023-09-30T11:58:56;99525.72;;;31.62;25.58
9889;BME280;4983;42.112;24.738;2023-09-30T12:01:24;99528.47;;;31.67;24.26
9889;BME280;4983;42.112;24.738;2023-09-30T12:03:52;99524.28;;;31.70;24.91
9889;BME280;4983;42.112;24.738;2023-09-30T12:06:22;99508.88;;;31.67;24.12
9889;BME280;4983;42.112;24.738;2023-09-30T12:08:51;99499.94;;;31.65;23.99
9889;BME280;4983;42.112;24.738;2023-09-30T12:11:20;99503.59;;;31.66;23.11
9889;BME280;4983;42.112;24.738;2023-09-30T12:13:50;99501.34;;;31.68;23.78
9889;BME280;4983;42.112;24.738;2023-09-30T12:16:17;99498.81;;;31.61;23.55
9889;BME280;4983;42.112;24.738;2023-09-30T12:18:45;99501.44;;;31.13;23.29
9889;BME280;4983;42.112;24.738;2023-09-30T12:21:13;99502.53;;;31.17;23.08
9889;BME280;4983;42.112;24.738;2023-09-30T12:23:49;99493.63;;;31.25;23.40
9889;BME280;4983;42.112;24.738;2023-09-30T12:26:18;99499.69;;;31.52;24.51
9889;BME280;4983;42.112;24.738;2023-09-30T12:28:45;99490.19;;;31.53;23.64
9889;BME280;4983;42.112;24.738;2023-09-30T12:31:13;99519.88;;;31.54;23.83
9889;BME280;4983;42.112;24.738;2023-09-30T12:33:41;99482.88;;;31.62;23.91
9889;BME280;4983;42.112;24.738;2023-09-30T12:36:08;99482.34;;;31.60;23.45
9889;BME280;4983;42.112;24.738;2023-09-30T12:38:34;99482.34;;;31.55;24.00
9889;BME280;4983;42.112;24.738;2023-09-30T12:41:01;99475.38;;;31.42;23.31
9889;BME280;4983;42.112;24.738;2023-09-30T12:43:30;99467.31;;;31.36;23.36
9889;BME280;4983;42.112;24.738;2023-09-30T12:45:57;99457.81;;;31.07;22.44
9889;BME280;4983;42.112;24.738;2023-09-30T12:48:25;99464.50;;;31.11;24.15
9889;BME280;4983;42.112;24.738;2023-09-30T12:50:52;99478.97;;;31.63;24.23
9889;BME280;4983;42.112;24.738;2023-09-30T12:53:19;99466.38;;;31.60;23.76
9889;BME280;4983;42.112;24.738;2023-09-30T12:55:46;99464.16;;;31.62;23.79
9889;BME280;4983;42.112;24.738;2023-09-30T12:58:13;99465.47;;;31.85;23.43
9889;BME280;4983;42.112;24.738;2023-09-30T13:00:42;99446.97;;;31.89;21.76
9889;BME280;4983;42.112;24.738;2023-09-30T13:03:09;99453.72;;;31.83;22.23
9889;BME280;4983;42.112;24.738;2023-09-30T13:05:38;99450.97;;;31.63;22.77
9889;BME280;4983;42.112;24.738;2023-09-30T13:08:05;99449.38;;;31.42;23.01
9889;BME280;4983;42.112;24.738;2023-09-30T13:10:32;99452.34;;;31.70;22.72
9889;BME280;4983;42.112;24.738;2023-09-30T13:12:59;99444.06;;;31.40;23.24
9889;BME280;4983;42.112;24.738;2023-09-30T13:15:30;99444.41;;;31.19;23.57
9889;BME280;4983;42.112;24.738;2023-09-30T13:17:58;99445.78;;;31.21;22.74
9889;BME280;4983;42.112;24.738;2023-09-30T13:20:26;99449.09;;;31.13;24.24